createdAt,value
2023-05-20T00:03:53.278Z,1015.04
2023-05-20T00:04:53.764Z,1015.05
2023-05-20T00:05:54.638Z,1015.05
2023-05-20T00:06:55.512Z,1015.08
2023-05-20T00:07:56.378Z,1015.07
2023-05-20T00:08:57.245Z,1015.08
2023-05-20T00:09:58.180Z,1015.10
2023-05-20T00:10:59.064Z,1015.09
2023-05-20T00:11:59.956Z,1015.09
2023-05-20T00:13:00.820Z,1015.07
2023-05-20T00:14:01.703Z,1015.09
2023-05-20T00:15:02.578Z,1015.08
2023-05-20T00:16:03.477Z,1015.07
2023-05-20T00:17:04.360Z,1015.05
2023-05-20T00:18:05.290Z,1015.05
2023-05-20T00:19:06.295Z,1015.03
2023-05-20T00:20:06.690Z,1015.04
2023-05-20T00:21:07.629Z,1015.03
2023-05-20T00:22:08.492Z,1015.02
2023-05-20T00:23:09.355Z,1015.04
2023-05-20T00:26:45.924Z,1015.07
2023-05-20T00:27:46.893Z,1015.08
2023-05-20T00:28:47.782Z,1015.10
2023-05-20T00:29:48.692Z,1015.10
2023-05-20T00:30:49.569Z,1015.07
2023-05-20T00:31:50.618Z,1015.08
2023-05-20T00:32:51.059Z,1015.09
2023-05-20T00:35:53.620Z,1015.07
2023-05-20T00:36:54.519Z,1015.04
2023-05-20T00:37:55.639Z,1015.07
2023-05-20T00:38:57.116Z,1015.08
2023-05-20T00:39:56.984Z,1015.07
2023-05-20T00:40:57.925Z,1015.05
2023-05-20T00:41:58.448Z,1015.04
2023-05-20T00:42:59.330Z,1015.02
2023-05-20T00:44:00.228Z,1015.01
2023-05-20T00:45:00.805Z,1015.02
2023-05-20T00:46:01.694Z,1015.03
2023-05-20T00:47:02.586Z,1015.04
2023-05-20T00:48:03.627Z,1015.06
2023-05-20T00:49:04.080Z,1015.04
2023-05-20T00:50:04.949Z,1015.05
2023-05-20T00:51:05.801Z,1015.06
2023-05-20T00:52:06.756Z,1015.04
2023-05-20T00:53:07.652Z,1015.02
2023-05-20T00:54:08.516Z,1015.03
2023-05-20T00:55:09.410Z,1015.06
2023-05-20T00:56:10.261Z,1015.05
2023-05-20T00:57:11.172Z,1015.04
2023-05-20T00:58:12.034Z,1015.02
2023-05-20T00:59:12.924Z,1015.02
2023-05-20T01:00:13.842Z,1015.01
2023-05-20T01:01:14.807Z,1014.99
2023-05-20T01:02:15.285Z,1014.99
2023-05-20T01:03:16.268Z,1015.01
2023-05-20T01:04:16.882Z,1015.00
2023-05-20T01:05:17.319Z,1015.01
2023-05-20T01:06:18.270Z,1014.99
2023-05-20T01:07:19.160Z,1014.97
2023-05-20T01:29:53.680Z,1014.96
2023-05-20T01:32:59.469Z,1014.96
2023-05-20T01:33:59.565Z,1014.99
2023-05-20T01:34:59.973Z,1014.96
2023-05-20T01:36:00.950Z,1014.95
2023-05-20T01:37:01.326Z,1014.96
2023-05-20T01:38:02.198Z,1014.96
2023-05-20T01:39:03.131Z,1014.95
2023-05-20T01:40:03.975Z,1014.93
2023-05-20T01:41:04.829Z,1014.94
2023-05-20T01:42:05.709Z,1014.97
2023-05-20T01:43:06.603Z,1014.94
2023-05-20T01:44:07.530Z,1014.97
2023-05-20T01:45:08.317Z,1014.91
2023-05-20T01:46:09.222Z,1014.90
2023-05-20T01:47:10.072Z,1014.92
2023-05-20T01:48:11.023Z,1014.91
2023-05-20T01:49:11.856Z,1014.90
2023-05-20T01:50:12.747Z,1014.90
2023-05-20T01:51:13.635Z,1014.89
2023-05-20T01:52:14.542Z,1014.90
2023-05-20T01:53:15.375Z,1014.88
2023-05-20T01:54:16.234Z,1014.86
2023-05-20T01:55:17.123Z,1014.84
2023-05-20T01:56:17.995Z,1014.82
2023-05-20T01:57:18.875Z,1014.81
2023-05-20T01:58:19.745Z,1014.80
2023-05-20T01:59:20.635Z,1014.78
2023-05-20T02:00:21.524Z,1014.78
2023-05-20T02:01:22.506Z,1014.80
2023-05-20T02:02:23.070Z,1014.77
2023-05-20T02:03:23.611Z,1014.76
2023-05-20T02:04:24.475Z,1014.77
2023-05-20T02:05:25.429Z,1014.78
2023-05-20T02:06:26.294Z,1014.75
2023-05-20T02:07:27.199Z,1014.75
2023-05-20T02:08:28.068Z,1014.74
2023-05-20T02:09:28.945Z,1014.76
2023-05-20T02:10:29.825Z,1014.77
2023-05-20T02:11:30.706Z,1014.75
2023-05-20T02:12:31.607Z,1014.78
2023-05-20T02:13:32.513Z,1014.79
2023-05-20T02:14:33.379Z,1014.79
2023-05-20T02:15:34.579Z,1014.82
2023-05-20T02:16:35.298Z,1014.84
2023-05-20T02:17:36.216Z,1014.83
2023-05-20T02:21:23.283Z,1014.83
2023-05-20T02:22:23.860Z,1014.79
2023-05-20T02:23:24.275Z,1014.80
2023-05-20T02:24:25.232Z,1014.85
2023-05-20T02:25:26.196Z,1014.84
2023-05-20T02:26:27.069Z,1014.84
2023-05-20T02:27:27.931Z,1014.83
2023-05-20T02:28:28.857Z,1014.86
2023-05-20T02:29:29.715Z,1014.89
2023-05-20T02:30:30.589Z,1014.89
2023-05-20T02:31:31.476Z,1014.89
2023-05-20T02:32:32.583Z,1014.90
2023-05-20T02:33:33.007Z,1014.91
2023-05-20T02:34:34.122Z,1014.92
2023-05-20T02:38:01.208Z,1014.90
2023-05-20T02:39:01.742Z,1014.87
2023-05-20T02:40:02.272Z,1014.87
2023-05-20T02:41:03.777Z,1014.85
2023-05-20T02:50:30.909Z,1014.80
2023-05-20T02:51:32.386Z,1014.82
2023-05-20T02:52:31.845Z,1014.81
2023-05-20T02:53:32.824Z,1014.81
2023-05-20T02:54:33.800Z,1014.82
2023-05-20T02:55:34.963Z,1014.82
2023-05-20T02:56:35.662Z,1014.83
2023-05-20T02:57:36.560Z,1014.81
2023-05-20T02:58:37.486Z,1014.81
2023-05-20T02:59:38.335Z,1014.79
2023-05-20T03:00:39.206Z,1014.78
2023-05-20T03:01:40.119Z,1014.79
2023-05-20T03:02:41.054Z,1014.79
2023-05-20T03:03:41.926Z,1014.77
2023-05-20T03:04:42.913Z,1014.78
2023-05-20T03:05:43.309Z,1014.76
2023-05-20T03:06:44.185Z,1014.76
2023-05-20T03:07:45.072Z,1014.75
2023-05-20T03:08:45.950Z,1014.74
2023-05-20T03:09:46.833Z,1014.73
2023-05-20T03:10:47.726Z,1014.73
2023-05-20T03:11:48.606Z,1014.73
2023-05-20T03:12:49.497Z,1014.75
2023-05-20T03:13:50.358Z,1014.75
2023-05-20T03:14:51.219Z,1014.75
2023-05-20T03:15:52.139Z,1014.76
2023-05-20T03:16:53.003Z,1014.75
2023-05-20T03:17:53.901Z,1014.76
2023-05-20T03:18:54.824Z,1014.74
2023-05-20T03:19:55.686Z,1014.75
2023-05-20T03:20:56.572Z,1014.73
2023-05-20T03:21:57.417Z,1014.73
2023-05-20T03:22:58.313Z,1014.75
2023-05-20T03:23:59.179Z,1014.75
2023-05-20T03:25:00.045Z,1014.77
2023-05-20T03:26:00.908Z,1014.76
2023-05-20T03:27:01.791Z,1014.76
2023-05-20T03:28:02.656Z,1014.75
2023-05-20T03:29:03.552Z,1014.78
2023-05-20T03:30:04.407Z,1014.75
2023-05-20T03:31:05.306Z,1014.71
2023-05-20T03:32:07.488Z,1014.70
2023-05-20T03:33:06.934Z,1014.74
2023-05-20T03:34:07.816Z,1014.75
2023-05-20T03:35:08.737Z,1014.76
2023-05-20T03:36:09.605Z,1014.75
2023-05-20T03:37:10.461Z,1014.75
2023-05-20T03:38:11.328Z,1014.76
2023-05-20T03:39:12.201Z,1014.74
2023-05-20T03:40:13.080Z,1014.73
2023-05-20T03:41:13.987Z,1014.71
2023-05-20T03:42:14.833Z,1014.72
2023-05-20T03:43:15.713Z,1014.72
2023-05-20T03:44:16.585Z,1014.74
2023-05-20T03:45:17.482Z,1014.72
2023-05-20T04:10:37.630Z,1014.67
2023-05-20T04:11:38.191Z,1014.69
2023-05-20T04:12:39.069Z,1014.70
2023-05-20T04:13:39.925Z,1014.70
2023-05-20T04:14:40.996Z,1014.72
2023-05-20T04:15:41.348Z,1014.74
2023-05-20T04:16:42.349Z,1014.72
2023-05-20T04:17:43.234Z,1014.75
2023-05-20T04:18:44.103Z,1014.76
2023-05-20T04:19:44.962Z,1014.78
2023-05-20T04:20:45.827Z,1014.79
2023-05-20T04:21:46.705Z,1014.76
2023-05-20T04:22:47.587Z,1014.76
2023-05-20T04:23:48.448Z,1014.75
2023-05-20T04:24:49.326Z,1014.76
2023-05-20T04:25:50.265Z,1014.77
2023-05-20T04:26:51.109Z,1014.76
2023-05-20T04:27:51.974Z,1014.75
2023-05-20T04:28:52.849Z,1014.75
2023-05-20T04:29:53.728Z,1014.75
2023-05-20T04:30:54.670Z,1014.72
2023-05-20T04:31:55.569Z,1014.73
2023-05-20T04:33:07.409Z,1014.74
2023-05-20T04:33:57.355Z,1014.74
2023-05-20T04:34:58.397Z,1014.72
2023-05-20T04:35:58.989Z,1014.75
2023-05-20T04:36:59.423Z,1014.70
2023-05-20T04:38:00.425Z,1014.77
2023-05-20T04:39:02.353Z,1014.75
2023-05-20T04:40:02.228Z,1014.76
2023-05-20T04:41:03.127Z,1014.77
2023-05-20T04:43:59.717Z,1014.82
2023-05-20T04:52:56.389Z,1014.88
2023-05-20T04:55:52.410Z,1014.83
2023-05-20T04:56:52.933Z,1014.81
2023-05-20T04:57:53.517Z,1014.85
2023-05-20T04:58:54.004Z,1014.88
2023-05-20T04:59:54.899Z,1014.89
2023-05-20T05:00:55.844Z,1014.87
2023-05-20T05:01:56.869Z,1014.86
2023-05-20T05:02:57.301Z,1014.88
2023-05-20T05:03:58.182Z,1014.86
2023-05-20T05:04:59.139Z,1014.85
2023-05-20T05:05:59.992Z,1014.87
2023-05-20T05:07:00.898Z,1014.84
2023-05-20T05:08:01.877Z,1014.85
2023-05-20T05:09:02.799Z,1014.84
2023-05-20T05:10:03.696Z,1014.84
2023-05-20T05:11:04.565Z,1014.85
2023-05-20T05:12:05.460Z,1014.85
2023-05-20T05:13:06.348Z,1014.82
2023-05-20T05:14:07.214Z,1014.84
2023-05-20T05:15:08.099Z,1014.84
2023-05-20T05:16:09.021Z,1014.86
2023-05-20T05:17:09.936Z,1014.83
2023-05-20T05:18:10.875Z,1014.84
2023-05-20T05:19:11.817Z,1014.82
2023-05-20T05:20:12.731Z,1014.81
2023-05-20T05:21:13.663Z,1014.82
2023-05-20T05:45:34.774Z,1014.64
2023-05-20T06:03:53.203Z,1014.57
2023-05-20T06:04:53.872Z,1014.54
2023-05-20T06:05:54.377Z,1014.58
2023-05-20T06:06:55.053Z,1014.60
2023-05-20T06:07:55.521Z,1014.62
2023-05-20T06:12:58.547Z,1014.62
2023-05-20T06:13:59.951Z,1014.63
2023-05-20T06:14:59.820Z,1014.63
2023-05-20T06:28:40.373Z,1014.56
2023-05-20T06:42:53.019Z,1014.37
2023-05-20T06:43:53.658Z,1014.35
2023-05-20T06:44:54.158Z,1014.36
2023-05-20T06:45:55.088Z,1014.33
2023-05-20T06:46:56.177Z,1014.34
2023-05-20T07:14:12.533Z,1014.34
2023-05-20T07:15:13.462Z,1014.31
2023-05-20T07:16:14.406Z,1014.31
2023-05-20T07:17:15.305Z,1014.29
2023-05-20T07:18:16.212Z,1014.26
2023-05-20T07:19:17.116Z,1014.27
2023-05-20T07:20:18.020Z,1014.26
2023-05-20T07:21:18.885Z,1014.28
2023-05-20T07:22:19.866Z,1014.27
2023-05-20T07:23:20.761Z,1014.24
2023-05-20T07:24:21.637Z,1014.30
2023-05-20T07:25:22.521Z,1014.27
2023-05-20T07:26:23.405Z,1014.25
2023-05-20T07:27:24.272Z,1014.21
2023-05-20T07:28:25.236Z,1014.24
2023-05-20T07:29:26.121Z,1014.21
2023-05-20T07:30:26.950Z,1014.21
2023-05-20T07:31:27.841Z,1014.19
2023-05-20T07:32:28.796Z,1014.24
2023-05-20T07:33:29.668Z,1014.18
2023-05-20T07:34:30.543Z,1014.16
2023-05-20T07:35:31.458Z,1014.16
2023-05-20T07:36:32.327Z,1014.13
2023-05-20T07:37:33.211Z,1014.12
2023-05-20T07:38:34.070Z,1014.11
2023-05-20T07:39:34.943Z,1014.09
2023-05-20T07:40:35.985Z,1014.10
2023-05-20T07:41:36.406Z,1014.09
2023-05-20T07:42:37.260Z,1014.07
2023-05-20T07:43:38.141Z,1014.08
2023-05-20T07:44:39.037Z,1014.15
2023-05-20T07:45:39.907Z,1014.06
2023-05-20T07:46:40.852Z,1014.08
2023-05-20T07:47:41.728Z,1014.09
2023-05-20T07:48:42.603Z,1014.10
2023-05-20T07:49:43.465Z,1014.12
2023-05-20T07:50:44.326Z,1014.10
2023-05-20T07:51:45.260Z,1014.14
2023-05-20T07:52:55.838Z,1014.13
2023-05-20T07:53:47.869Z,1014.15
2023-05-20T07:54:47.743Z,1014.11
2023-05-20T07:55:48.633Z,1014.08
2023-05-20T07:56:49.525Z,1014.13
2023-05-20T07:57:50.436Z,1014.10
2023-05-20T07:58:51.320Z,1014.14
2023-05-20T07:59:52.269Z,1014.15
2023-05-20T08:28:49.881Z,1014.07
2023-05-20T08:29:50.783Z,1014.02
2023-05-20T08:35:24.875Z,1014.01
2023-05-20T08:36:25.392Z,1014.05
2023-05-20T08:37:26.247Z,1013.96
2023-05-20T08:38:27.172Z,1013.98
2023-05-20T08:39:28.045Z,1014.02
2023-05-20T08:40:28.957Z,1013.94
2023-05-20T08:41:29.844Z,1013.93
2023-05-20T08:42:30.918Z,1013.93
2023-05-20T08:43:32.265Z,1013.92
2023-05-20T08:44:32.177Z,1014.05
2023-05-20T08:45:33.249Z,1013.95
2023-05-20T08:46:36.464Z,1013.87
2023-05-20T08:47:34.357Z,1013.90
2023-05-20T08:48:35.234Z,1013.91
2023-05-20T08:49:36.134Z,1013.90
2023-05-20T08:50:37.031Z,1013.93
2023-05-20T08:51:38.028Z,1013.77
2023-05-20T08:58:56.757Z,1013.76
2023-05-20T09:03:58.962Z,1013.74
2023-05-20T09:04:59.881Z,1013.67
2023-05-20T09:06:00.591Z,1013.79
2023-05-20T09:07:01.503Z,1013.72
2023-05-20T09:08:05.079Z,1013.73
2023-05-20T09:09:03.092Z,1013.78
2023-05-20T09:10:03.949Z,1013.68
2023-05-20T09:11:04.861Z,1013.73
2023-05-20T09:12:05.732Z,1013.83
2023-05-20T09:13:06.608Z,1013.77
2023-05-20T09:14:07.502Z,1013.85
2023-05-20T09:15:08.403Z,1013.77
2023-05-20T09:16:09.415Z,1013.74
2023-05-20T09:17:09.808Z,1013.77
2023-05-20T09:18:10.686Z,1013.57
2023-05-20T09:19:11.666Z,1013.78
2023-05-20T09:20:12.102Z,1013.80
2023-05-20T09:21:13.052Z,1013.75
2023-05-20T09:22:13.883Z,1013.75
2023-05-20T09:23:14.750Z,1013.70
2023-05-20T09:24:15.649Z,1013.66
2023-05-20T09:25:16.510Z,1013.69
2023-05-20T09:26:17.395Z,1013.66
2023-05-20T09:27:18.410Z,1013.58
2023-05-20T10:17:43.918Z,1013.28
2023-05-20T10:18:44.518Z,1013.27
2023-05-20T10:24:13.285Z,1013.19
2023-05-20T10:42:55.204Z,1013.21
2023-05-20T10:43:56.057Z,1013.19
2023-05-20T10:45:06.962Z,1013.14
2023-05-20T10:45:57.835Z,1013.20
2023-05-20T10:47:16.864Z,1013.20
2023-05-20T10:48:00.577Z,1013.20
2023-05-20T10:49:00.206Z,1013.24
2023-05-20T10:50:00.774Z,1013.23
2023-05-20T10:51:01.594Z,1013.25
2023-05-20T10:52:02.488Z,1013.27
2023-05-20T10:53:03.358Z,1013.17
2023-05-20T10:54:04.340Z,1013.15
2023-05-20T10:55:05.232Z,1013.12
2023-05-20T10:56:06.059Z,1013.13
2023-05-20T10:57:06.943Z,1013.04
2023-05-20T10:58:07.849Z,1013.05
2023-05-20T10:59:08.837Z,1012.98
2023-05-20T11:00:09.306Z,1012.98
2023-05-20T11:01:09.823Z,1012.94
2023-05-20T11:02:10.532Z,1012.92
2023-05-20T11:03:11.525Z,1012.97
2023-05-20T11:04:12.440Z,1012.97
2023-05-20T11:05:12.870Z,1012.94
2023-05-20T11:06:15.351Z,1012.95
2023-05-20T11:07:14.419Z,1012.87
2023-05-20T11:09:17.365Z,1012.90
2023-05-20T11:10:16.827Z,1012.86
2023-05-20T11:11:17.741Z,1012.69
2023-05-20T11:14:19.827Z,1012.78
2023-05-20T11:22:10.463Z,1012.80
2023-05-20T11:23:14.022Z,1012.75
2023-05-20T11:26:07.683Z,1012.67
2023-05-20T11:27:08.529Z,1012.66
2023-05-20T11:28:09.395Z,1012.68
2023-05-20T11:31:09.562Z,1012.79
2023-05-20T11:34:10.946Z,1012.69
2023-05-20T11:35:11.827Z,1012.68
2023-05-20T11:36:23.942Z,1012.68
2023-05-20T11:37:14.473Z,1012.70
2023-05-20T11:38:14.315Z,1012.73
2023-05-20T11:42:13.534Z,1012.73
2023-05-20T11:43:14.369Z,1012.67
2023-05-20T11:44:15.360Z,1012.76
2023-05-20T11:45:16.179Z,1012.72
2023-05-20T11:46:17.109Z,1012.73
2023-05-20T11:47:21.329Z,1012.80
2023-05-20T11:48:30.894Z,1012.66
2023-05-20T11:52:48.705Z,1012.81
2023-05-20T11:53:49.771Z,1012.83
2023-05-20T11:56:52.321Z,1012.79
2023-05-20T11:59:57.229Z,1012.77
2023-05-20T12:01:05.719Z,1012.77
2023-05-20T12:06:21.171Z,1012.70
2023-05-20T12:07:21.680Z,1012.64
2023-05-20T12:10:56.456Z,1012.72
2023-05-20T12:34:27.597Z,1012.44
2023-05-20T12:35:28.230Z,1012.44
2023-05-20T12:41:23.928Z,1012.34
2023-05-20T12:42:24.647Z,1012.41
2023-05-20T12:45:24.717Z,1012.43
2023-05-20T12:48:45.407Z,1012.37
2023-05-20T12:49:46.464Z,1012.45
2023-05-20T12:52:47.599Z,1012.42
2023-05-20T12:53:48.458Z,1012.40
2023-05-20T12:54:49.190Z,1012.40
2023-05-20T12:55:49.727Z,1012.34
2023-05-20T12:56:50.594Z,1012.33
2023-05-20T12:57:51.499Z,1012.32
2023-05-20T12:58:52.354Z,1012.33
2023-05-20T12:59:53.230Z,1012.27
2023-05-20T13:00:54.220Z,1012.26
2023-05-20T13:01:55.164Z,1012.22
2023-05-20T13:02:56.151Z,1012.26
2023-05-20T13:03:56.517Z,1012.26
2023-05-20T13:04:57.421Z,1012.31
2023-05-20T13:05:58.334Z,1012.30
2023-05-20T13:06:59.226Z,1012.24
2023-05-20T13:08:00.117Z,1012.32
2023-05-20T13:09:01.071Z,1012.24
2023-05-20T13:10:01.630Z,1012.27
2023-05-20T13:11:02.610Z,1012.24
2023-05-20T13:12:03.488Z,1012.20
2023-05-20T13:13:04.453Z,1012.20
2023-05-20T13:14:05.307Z,1012.20
2023-05-20T13:15:06.195Z,1012.16
2023-05-20T13:16:07.185Z,1012.17
2023-05-20T13:17:08.128Z,1012.15
2023-05-20T13:18:08.578Z,1012.12
2023-05-20T13:28:11.258Z,1012.12
2023-05-20T13:32:09.480Z,1012.05
2023-05-20T13:33:11.395Z,1012.06
2023-05-20T13:34:11.277Z,1012.02
2023-05-20T13:35:11.877Z,1012.02
2023-05-20T13:36:12.738Z,1011.99
2023-05-20T13:37:13.643Z,1011.98
2023-05-20T13:38:14.520Z,1011.96
2023-05-20T13:39:15.442Z,1011.92
2023-05-20T13:40:16.359Z,1011.90
2023-05-20T13:41:17.213Z,1011.89
2023-05-20T13:42:18.228Z,1011.92
2023-05-20T13:43:19.108Z,1011.93
2023-05-20T13:44:19.973Z,1011.92
2023-05-20T13:45:20.889Z,1011.86
2023-05-20T13:46:21.762Z,1011.88
2023-05-20T13:47:22.647Z,1011.87
2023-05-20T13:48:23.691Z,1011.86
2023-05-20T13:49:24.559Z,1011.82
2023-05-20T13:50:25.437Z,1011.80
2023-05-20T13:51:26.426Z,1011.77
2023-05-20T13:52:27.377Z,1011.74
2023-05-20T13:53:28.233Z,1011.79
2023-05-20T13:54:29.092Z,1011.75
2023-05-20T13:55:30.021Z,1011.73
2023-05-20T13:56:30.862Z,1011.73
2023-05-20T13:57:31.725Z,1011.71
2023-05-20T13:58:32.641Z,1011.72
2023-05-20T13:59:33.521Z,1011.76
2023-05-20T14:00:34.569Z,1011.73
2023-05-20T14:01:35.098Z,1011.72
2023-05-20T14:02:36.049Z,1011.70
2023-05-20T14:03:37.032Z,1011.75
2023-05-20T14:23:38.280Z,1011.57
2023-05-20T14:24:39.168Z,1011.54
2023-05-20T14:25:39.646Z,1011.53
2023-05-20T14:26:40.509Z,1011.49
2023-05-20T14:27:41.358Z,1011.52
2023-05-20T14:28:42.278Z,1011.43
2023-05-20T14:29:43.095Z,1011.41
2023-05-20T14:30:44.118Z,1011.38
2023-05-20T14:31:44.513Z,1011.42
2023-05-20T14:32:45.430Z,1011.43
2023-05-20T14:33:46.355Z,1011.41
2023-05-20T14:34:47.199Z,1011.42
2023-05-20T14:35:48.071Z,1011.39
2023-05-20T14:36:48.954Z,1011.38
2023-05-20T14:37:49.830Z,1011.42
2023-05-20T14:38:50.721Z,1011.37
2023-05-20T14:39:51.578Z,1011.39
2023-05-20T14:40:52.446Z,1011.37
2023-05-20T14:41:53.348Z,1011.34
2023-05-20T14:42:54.211Z,1011.37
2023-05-20T14:43:55.135Z,1011.37
2023-05-20T14:44:56.000Z,1011.37
2023-05-20T14:45:56.876Z,1011.35
2023-05-20T14:46:57.863Z,1011.36
2023-05-20T14:47:58.289Z,1011.34
2023-05-20T14:48:59.139Z,1011.35
2023-05-20T14:50:00.025Z,1011.34
2023-05-20T14:51:00.902Z,1011.31
2023-05-20T14:52:01.767Z,1011.33
2023-05-20T14:53:02.675Z,1011.31
2023-05-20T14:54:03.541Z,1011.27
2023-05-20T14:55:04.502Z,1011.27
2023-05-20T14:56:05.526Z,1011.23
2023-05-20T14:57:05.871Z,1011.25
2023-05-20T14:58:06.745Z,1011.29
2023-05-20T14:59:07.652Z,1011.28
2023-05-20T15:00:08.518Z,1011.24
2023-05-20T15:01:09.413Z,1011.23
2023-05-20T15:02:10.299Z,1011.22
2023-05-20T15:03:11.314Z,1011.24
2023-05-20T15:04:11.848Z,1011.27
2023-05-20T15:05:12.712Z,1011.26
2023-05-20T15:06:13.751Z,1011.17
2023-05-20T15:07:14.256Z,1011.38
2023-05-20T15:08:15.110Z,1011.32
2023-05-20T15:09:16.005Z,1011.33
2023-05-20T15:10:17.064Z,1011.30
2023-05-20T15:11:17.508Z,1011.37
2023-05-20T15:12:18.424Z,1011.31
2023-05-20T15:13:19.332Z,1011.31
2023-05-20T15:14:20.233Z,1011.30
2023-05-20T15:15:21.121Z,1011.33
2023-05-20T15:16:22.023Z,1011.34
2023-05-20T15:17:22.962Z,1011.30
2023-05-20T15:18:23.891Z,1011.32
2023-05-20T15:19:24.798Z,1011.29
2023-05-20T15:20:25.690Z,1011.29
2023-05-20T15:21:26.548Z,1011.31
2023-05-20T15:22:27.483Z,1011.34
2023-05-20T15:23:28.347Z,1011.32
2023-05-20T15:24:29.252Z,1011.36
2023-05-20T15:25:30.117Z,1011.28
2023-05-20T15:26:31.016Z,1011.32
2023-05-20T15:27:31.918Z,1011.28
2023-05-20T15:28:32.803Z,1011.28
2023-05-20T15:29:33.666Z,1011.27
2023-05-20T15:30:34.701Z,1011.30
2023-05-20T15:31:35.237Z,1011.30
2023-05-20T15:39:03.667Z,1011.21
2023-05-20T15:40:04.612Z,1011.19
2023-05-20T15:41:05.521Z,1011.20
2023-05-20T15:42:06.418Z,1011.17
2023-05-20T15:43:07.291Z,1011.17
2023-05-20T15:44:08.156Z,1011.17
2023-05-20T15:45:09.040Z,1011.22
2023-05-20T15:46:09.974Z,1011.23
2023-05-20T15:47:10.864Z,1011.20
2023-05-20T15:48:11.819Z,1011.18
2023-05-20T15:49:12.742Z,1011.16
2023-05-20T15:50:13.717Z,1011.14
2023-05-20T15:51:14.117Z,1011.15
2023-05-20T15:52:15.007Z,1011.15
2023-05-20T15:53:15.881Z,1011.14
2023-05-20T15:54:16.742Z,1011.17
2023-05-20T15:55:17.652Z,1011.12
2023-05-20T15:56:18.510Z,1011.18
2023-05-20T15:57:19.388Z,1011.12
2023-05-20T15:58:20.265Z,1011.13
2023-05-20T15:59:21.169Z,1011.11
2023-05-20T16:00:22.012Z,1011.12
2023-05-20T16:01:22.918Z,1011.08
2023-05-20T16:02:23.947Z,1011.10
2023-05-20T16:03:24.466Z,1011.08
2023-05-20T16:04:25.442Z,1011.09
2023-05-20T16:05:26.269Z,1011.07
2023-05-20T16:06:27.159Z,1011.06
2023-05-20T16:07:28.038Z,1011.04
2023-05-20T16:08:28.902Z,1011.01
2023-05-20T16:09:29.773Z,1011.04
2023-05-20T16:10:30.659Z,1011.04
2023-05-20T16:11:31.523Z,1011.01
2023-05-20T16:12:32.398Z,1011.04
2023-05-20T16:13:33.302Z,1011.00
2023-05-20T16:14:34.160Z,1011.03
2023-05-20T16:15:35.021Z,1010.99
2023-05-20T16:16:36.358Z,1010.97
2023-05-20T16:17:36.831Z,1010.99
2023-05-20T16:18:37.691Z,1010.99
2023-05-20T16:19:38.618Z,1010.99
2023-05-20T16:20:39.050Z,1010.99
2023-05-20T16:21:39.926Z,1010.96
2023-05-20T16:22:40.792Z,1010.94
2023-05-20T16:23:41.680Z,1010.94
2023-05-20T16:24:42.557Z,1010.94
2023-05-20T16:25:43.435Z,1010.92
2023-05-20T16:26:44.276Z,1010.93
2023-05-20T16:27:45.141Z,1010.99
2023-05-20T16:28:46.027Z,1010.96
2023-05-20T16:29:46.988Z,1010.95
2023-05-20T16:30:47.798Z,1010.99
2023-05-20T16:31:48.755Z,1010.97
2023-05-20T16:32:49.678Z,1010.99
2023-05-20T16:33:50.526Z,1010.98
2023-05-20T16:34:51.409Z,1010.96
2023-05-20T16:35:52.334Z,1010.88
2023-05-20T16:36:53.238Z,1010.96
2023-05-20T16:37:54.559Z,1010.93
2023-05-20T16:38:55.024Z,1010.93
2023-05-20T16:39:55.938Z,1010.94
2023-05-20T16:40:56.824Z,1010.92
2023-05-20T16:41:57.706Z,1010.95
2023-05-20T16:42:58.675Z,1010.97
2023-05-20T16:43:59.524Z,1010.95
2023-05-20T16:45:00.787Z,1010.96
2023-05-20T16:46:01.217Z,1010.94
2023-05-20T16:47:02.064Z,1010.94
2023-05-20T16:48:02.971Z,1010.93
2023-05-20T16:49:03.824Z,1010.95
2023-05-20T16:50:04.707Z,1010.96
2023-05-20T16:51:05.605Z,1010.96
2023-05-20T16:52:06.588Z,1010.92
2023-05-20T16:53:07.417Z,1010.98
2023-05-20T16:54:08.300Z,1010.98
2023-05-20T16:55:09.312Z,1011.00
2023-05-20T16:56:09.777Z,1011.05
2023-05-20T16:57:10.787Z,1011.04
2023-05-20T16:58:11.438Z,1011.01
2023-05-20T16:59:11.895Z,1011.02
2023-05-20T17:00:12.743Z,1010.97
2023-05-20T17:01:13.654Z,1010.97
2023-05-20T17:13:26.439Z,1010.99
2023-05-20T17:14:27.289Z,1011.00
2023-05-20T17:15:28.318Z,1010.99
2023-05-20T17:16:29.275Z,1011.03
2023-05-20T17:17:29.694Z,1011.05
2023-05-20T17:18:30.657Z,1011.04
2023-05-20T17:19:31.615Z,1011.06
2023-05-20T17:20:32.386Z,1011.07
2023-05-20T17:21:33.069Z,1011.07
2023-05-20T17:22:33.938Z,1011.08
2023-05-20T17:23:34.867Z,1011.08
2023-05-20T17:24:35.763Z,1011.06
2023-05-20T17:25:36.662Z,1011.05
2023-05-20T17:26:38.082Z,1011.06
2023-05-20T17:27:38.112Z,1011.04
2023-05-20T17:28:38.965Z,1011.05
2023-05-20T17:29:39.840Z,1011.05
2023-05-20T17:30:40.718Z,1011.04
2023-05-20T17:31:41.607Z,1011.06
2023-05-20T17:32:42.555Z,1011.04
2023-05-20T17:33:43.534Z,1011.02
2023-05-20T17:34:43.950Z,1011.04
2023-05-20T17:35:44.845Z,1011.04
2023-05-20T17:36:45.738Z,1011.06
2023-05-20T17:37:46.607Z,1011.07
2023-05-20T17:38:47.488Z,1011.07
2023-05-20T17:39:48.345Z,1011.07
2023-05-20T17:40:49.264Z,1011.09
2023-05-20T17:41:50.993Z,1011.07
2023-05-20T17:42:50.886Z,1011.07
2023-05-20T17:45:36.144Z,1011.08
2023-05-20T17:46:37.000Z,1011.08
2023-05-20T17:47:37.913Z,1011.08
2023-05-20T17:48:38.750Z,1011.08
2023-05-20T17:49:39.665Z,1011.08
2023-05-20T17:50:40.572Z,1011.07
2023-05-20T17:51:41.427Z,1011.07
2023-05-20T17:52:42.449Z,1011.06
2023-05-20T17:53:43.319Z,1011.09
2023-05-20T17:54:44.212Z,1011.06
2023-05-20T17:55:45.212Z,1011.08
2023-05-20T17:56:45.541Z,1011.09
2023-05-20T17:57:46.430Z,1011.10
2023-05-20T17:58:47.325Z,1011.10
2023-05-20T17:59:48.304Z,1011.07
2023-05-20T18:00:49.153Z,1011.10
2023-05-20T18:01:50.012Z,1011.12
2023-05-20T18:02:51.047Z,1011.12
2023-05-20T18:03:51.637Z,1011.14
2023-05-20T18:04:52.087Z,1011.14
2023-05-20T18:05:55.667Z,1011.17
2023-05-20T18:06:53.847Z,1011.19
2023-05-20T18:07:54.747Z,1011.22
2023-05-20T18:08:55.622Z,1011.22
2023-05-20T18:09:56.477Z,1011.21
2023-05-20T18:10:57.369Z,1011.21
2023-05-20T18:11:58.236Z,1011.25
2023-05-20T18:12:59.103Z,1011.28
2023-05-20T18:14:00.024Z,1011.32
2023-05-20T18:15:00.895Z,1011.33
2023-05-20T18:16:01.939Z,1011.36
2023-05-20T18:19:03.645Z,1011.34
2023-05-20T18:20:04.504Z,1011.33
2023-05-20T18:21:05.365Z,1011.34
2023-05-20T18:22:06.266Z,1011.32
2023-05-20T18:23:07.121Z,1011.32
2023-05-20T18:24:08.025Z,1011.31
2023-05-20T18:25:08.909Z,1011.31
2023-05-20T18:26:09.789Z,1011.27
2023-05-20T18:27:10.663Z,1011.23
2023-05-20T18:28:11.539Z,1011.19
2023-05-20T18:29:12.498Z,1011.16
2023-05-20T18:30:13.391Z,1011.16
2023-05-20T18:31:14.396Z,1011.16
2023-05-20T18:32:15.246Z,1011.17
2023-05-20T18:33:16.108Z,1011.17
2023-05-20T18:34:16.991Z,1011.15
2023-05-20T18:35:17.853Z,1011.15
2023-05-20T18:36:18.720Z,1011.16
2023-05-20T18:37:19.632Z,1011.18
2023-05-20T18:38:20.463Z,1011.17
2023-05-20T18:39:21.344Z,1011.19
2023-05-20T18:40:22.245Z,1011.22
2023-05-20T18:41:25.224Z,1011.21
2023-05-20T18:42:24.883Z,1011.22
2023-05-20T18:43:24.748Z,1011.21
2023-05-20T18:44:25.612Z,1011.25
2023-05-20T18:45:26.569Z,1011.23
2023-05-20T18:46:27.507Z,1011.19
2023-05-20T18:47:28.379Z,1011.18
2023-05-20T18:48:29.288Z,1011.16
2023-05-20T18:49:30.243Z,1011.16
2023-05-20T18:50:31.099Z,1011.14
2023-05-20T18:51:31.991Z,1011.13
2023-05-20T18:52:32.894Z,1011.11
2023-05-20T18:53:33.781Z,1011.10
2023-05-20T18:54:34.659Z,1011.09
2023-05-20T18:55:35.532Z,1011.11
2023-05-20T18:56:36.451Z,1011.11
2023-05-20T18:57:37.299Z,1011.12
2023-05-20T18:58:38.201Z,1011.12
2023-05-20T18:59:39.066Z,1011.13
2023-05-20T19:00:40.139Z,1011.13
2023-05-20T19:01:41.045Z,1011.11
2023-05-20T19:02:42.014Z,1011.12
2023-05-20T19:03:42.909Z,1011.10
2023-05-20T19:04:43.808Z,1011.09
2023-05-20T19:05:44.712Z,1011.08
2023-05-20T19:06:45.615Z,1011.08
2023-05-20T19:07:46.522Z,1011.08